Time;durP1;ratioP1;P1;durP2;ratioP2;P2;SDS_P1;SDS_P2;PMS_P1;PMS_P2;Temp;Humidity;BMP_temperature;BMP_pressure;BME280_temperature;BME280_humidity;BME280_pressure;Samples;Min_cycle;Max_cycle;Signal;HPM_P1;HPM_P2
2021/04/23 00:00:50;;;;;;;10.60;5.60;;;;;;;3.16;71.12;100576.16;104272;1099;77600;-65
2021/04/23 00:02:58;;;;;;;10.60;5.10;;;;;;;3.13;71.28;100571.91;104283;1104;78677;-65
2021/04/23 00:05:05;;;;;;;11.40;5.00;;;;;;;3.13;71.00;100573.76;104282;1104;78759;-63
2021/04/23 00:07:10;;;;;;;10.00;4.80;;;;;;;3.09;71.28;100575.00;104276;1104;76849;-65
2021/04/23 00:09:20;;;;;;;14.00;7.10;;;;;;;3.09;71.01;100573.18;104205;1097;77092;-65
2021/04/23 00:11:31;;;;;;;9.20;5.10;;;;;;;3.07;71.12;100572.48;104180;1104;77685;-59
2021/04/23 00:13:39;;;;;;;9.90;5.40;;;;;;;3.06;71.44;100573.45;104244;1104;78086;-59
2021/04/23 00:15:45;;;;;;;11.70;5.50;;;;;;;3.05;71.24;100574.42;104267;1104;77636;-64
2021/04/23 00:17:50;;;;;;;10.20;4.90;;;;;;;3.02;71.23;100577.39;104251;1104;79340;-64
2021/04/23 00:19:56;;;;;;;12.40;5.40;;;;;;;2.97;71.24;100577.78;104259;1104;79236;-59
2021/04/23 00:22:01;;;;;;;15.80;5.60;;;;;;;2.94;71.26;100580.72;104250;1104;78499;-60
2021/04/23 00:24:09;;;;;;;11.30;5.60;;;;;;;2.97;71.83;100566.26;104267;1099;78473;-59
2021/04/23 00:26:15;;;;;;;9.30;4.70;;;;;;;2.99;71.46;100564.32;104260;1104;77774;-64
2021/04/23 00:28:23;;;;;;;10.70;5.30;;;;;;;2.95;71.83;100568.23;104252;1104;76833;-63
2021/04/23 00:30:35;;;;;;;9.20;5.10;;;;;;;2.94;71.70;100567.38;104256;1104;77027;-60
2021/04/23 00:32:52;;;;;;;9.40;5.10;;;;;;;2.94;71.71;100571.86;104234;1104;78823;-59
2021/04/23 00:34:57;;;;;;;12.90;5.30;;;;;;;2.92;71.63;100573.83;104270;1104;77797;-60
2021/04/23 00:37:07;;;;;;;13.40;5.60;;;;;;;2.91;71.75;100570.31;104270;1104;77909;-58
2021/04/23 00:39:12;;;;;;;10.10;5.60;;;;;;;2.89;72.18;100571.44;104275;1104;78713;-58
2021/04/23 00:41:23;;;;;;;11.40;5.80;;;;;;;2.94;71.91;100579.87;104204;1104;78846;-59
2021/04/23 00:43:33;;;;;;;10.30;5.50;;;;;;;2.91;71.73;100572.16;104265;1104;77689;-59
2021/04/23 00:45:38;;;;;;;9.60;5.00;;;;;;;2.92;72.00;100577.34;104241;1104;77053;-58
2021/04/23 00:47:48;;;;;;;14.30;6.30;;;;;;;2.92;72.35;100579.17;104265;1104;77517;-59
2021/04/23 00:49:53;;;;;;;12.20;6.10;;;;;;;2.91;72.10;100570.31;104258;1104;77463;-58
2021/04/23 00:52:01;;;;;;;9.80;6.30;;;;;;;2.88;71.91;100570.58;104237;1104;78339;-59
2021/04/23 00:54:08;;;;;;;11.80;6.00;;;;;;;2.88;72.44;100578.59;104226;1104;76955;-59
2021/04/23 00:56:18;;;;;;;11.10;6.00;;;;;;;2.88;72.17;100575.09;104245;1104;79342;-58
2021/04/23 00:58:27;;;;;;;14.10;5.70;;;;;;;2.85;72.26;100572.70;104239;1104;77655;-58
2021/04/23 01:00:32;;;;;;;14.00;5.60;;;;;;;2.84;72.64;100574.52;104230;1104;79002;-62
2021/04/23 01:02:37;;;;;;;12.60;5.70;;;;;;;2.85;72.21;100578.04;104237;1104;77263;-65
2021/04/23 01:04:42;;;;;;;16.30;5.90;;;;;;;2.85;72.26;100567.37;104220;1104;78870;-63
2021/04/23 01:06:48;;;;;;;12.70;5.70;;;;;;;2.83;72.43;100580.83;104252;1104;78528;-58
2021/04/23 01:08:58;;;;;;;12.20;5.80;;;;;;;2.79;72.34;100568.75;104211;1104;78173;-59
2021/04/23 01:11:06;;;;;;;11.20;6.10;;;;;;;2.81;72.57;100576.60;104279;1098;76928;-58
2021/04/23 01:13:11;;;;;;;10.50;5.80;;;;;;;2.82;72.67;100579.16;104221;1104;76939;-59
2021/04/23 01:15:17;;;;;;;11.40;5.80;;;;;;;2.81;72.76;100577.45;104253;1104;77280;-63
2021/04/23 01:17:22;;;;;;;13.40;6.20;;;;;;;2.77;72.53;100575.20;104251;1098;77151;-63
2021/04/23 01:19:29;;;;;;;12.50;5.70;;;;;;;2.74;72.46;100576.32;104214;1104;79219;-64
2021/04/23 01:21:36;;;;;;;12.60;5.90;;;;;;;2.73;72.39;100587.11;104189;1104;76967;-59
2021/04/23 01:23:44;;;;;;;11.70;5.80;;;;;;;2.70;72.88;100582.89;104220;1104;77257;-59
2021/04/23 01:25:49;;;;;;;15.60;6.40;;;;;;;2.68;72.45;100581.34;104265;1104;76871;-63
2021/04/23 01:27:54;;;;;;;11.10;5.70;;;;;;;2.65;72.55;100592.27;104220;1104;78921;-63
2021/04/23 01:30:04;;;;;;;10.30;5.30;;;;;;;2.60;72.41;100591.83;104220;1104;78159;-62
2021/04/23 01:32:09;;;;;;;11.60;5.40;;;;;;;2.57;72.61;100584.95;104226;1104;77135;-62
2021/04/23 01:34:20;;;;;;;12.40;5.50;;;;;;;2.57;72.56;100590.28;104213;1104;78040;-64
2021/04/23 01:36:29;;;;;;;9.90;6.00;;;;;;;2.58;72.89;100585.80;104269;1104;77366;-58
2021/04/23 01:38:40;;;;;;;12.90;5.70;;;;;;;2.55;72.65;100589.58;104230;1104;78725;-59
2021/04/23 01:40:47;;;;;;;11.60;5.00;;;;;;;2.53;72.70;100596.84;104242;1099;78827;-59
2021/04/23 01:42:52;;;;;;;9.10;5.80;;;;;;;2.53;72.93;100601.36;104234;1104;77122;-59
2021/04/23 01:44:58;;;;;;;9.70;6.00;;;;;;;2.49;72.69;100599.92;104212;1104;79894;-61
2021/04/23 01:47:05;;;;;;;12.70;5.70;;;;;;;2.44;72.70;100591.48;104253;1104;77303;-62
2021/04/23 01:49:15;;;;;;;11.60;5.50;;;;;;;2.37;72.63;100588.48;104256;1099;76920;-62
2021/04/23 01:51:21;;;;;;;13.00;5.70;;;;;;;2.38;72.72;100596.38;104236;1104;77264;-58
2021/04/23 01:53:26;;;;;;;10.50;5.50;;;;;;;2.37;72.73;100596.48;104234;1104;79541;-59
2021/04/23 01:55:32;;;;;;;10.20;5.40;;;;;;;2.38;72.84;100595.52;104229;1104;77686;-59
2021/04/23 01:57:40;;;;;;;11.90;4.90;;;;;;;2.35;72.68;100591.30;104239;1104;77166;-59
2021/04/23 01:59:48;;;;;;;8.70;4.80;;;;;;;2.33;73.07;100582.57;104213;1104;77923;-59
2021/04/23 02:01:53;;;;;;;10.60;5.00;;;;;;;2.30;72.71;100593.52;104225;1104;77001;-58
2021/04/23 02:03:59;;;;;;;11.20;5.20;;;;;;;2.30;73.01;100595.34;104233;1104;78286;-57
2021/04/23 02:06:08;;;;;;;11.30;5.40;;;;;;;2.29;72.66;100598.97;104264;1104;77944;-63
2021/04/23 02:08:17;;;;;;;7.70;4.50;;;;;;;2.28;72.40;100597.30;104214;1104;78620;-64
2021/04/23 02:10:28;;;;;;;10.60;4.70;;;;;;;2.31;72.86;100602.34;104250;1104;77488;-59
2021/04/23 02:12:33;;;;;;;12.50;5.50;;;;;;;2.28;72.56;100603.45;104237;1099;77423;-58
2021/04/23 02:14:39;;;;;;;12.00;5.00;;;;;;;2.24;72.60;100601.19;104211;1104;78195;-57
2021/04/23 02:16:46;;;;;;;10.80;4.60;;;;;;;2.22;72.67;100611.14;104251;1098;77589;-58
2021/04/23 02:18:53;;;;;;;10.10;5.50;;;;;;;2.20;72.80;100610.41;104223;1104;77490;-58
2021/04/23 02:20:58;;;;;;;10.30;5.30;;;;;;;2.18;72.83;100604.38;104241;1099;78413;-63
2021/04/23 02:23:11;;;;;;;10.80;5.20;;;;;;;2.16;72.53;100606.33;104239;1099;78798;-63
2021/04/23 02:25:19;;;;;;;11.40;5.80;;;;;;;2.16;72.80;100606.33;104281;1104;78612;-63
2021/04/23 02:27:24;;;;;;;11.30;5.10;;;;;;;2.20;73.08;100613.07;104276;1104;77271;-63
2021/04/23 02:29:29;;;;;;;14.50;6.20;;;;;;;2.22;73.09;100605.81;104229;1104;78678;-64
2021/04/23 02:31:37;;;;;;;9.80;4.50;;;;;;;2.21;72.69;100614.77;104215;1104;78751;-59
2021/04/23 02:33:47;;;;;;;12.70;5.70;;;;;;;2.16;72.58;100612.52;104229;1104;79195;-59
2021/04/23 02:35:55;;;;;;;12.80;5.80;;;;;;;2.14;72.95;100619.77;104272;1099;77280;-62
2021/04/23 02:38:00;;;;;;;13.00;5.50;;;;;;;2.08;72.60;100625.64;104234;1104;77549;-65
2021/04/23 02:40:12;;;;;;;12.80;5.70;;;;;;;2.07;73.11;100618.61;104220;1104;78664;-63
2021/04/23 02:42:17;;;;;;;14.80;6.10;;;;;;;2.05;73.23;100623.23;104255;1104;78113;-63
2021/04/23 02:44:26;;;;;;;13.00;5.50;;;;;;;2.01;73.11;100629.78;104237;1104;78106;-63
2021/04/23 02:46:32;;;;;;;14.60;6.60;;;;;;;2.03;72.71;100635.00;104284;1104;78440;-63
2021/04/23 02:48:44;;;;;;;9.50;4.80;;;;;;;2.00;73.12;100627.26;104247;1104;77019;-63
2021/04/23 02:50:56;;;;;;;8.90;4.50;;;;;;;2.00;73.20;100628.11;104285;1098;77107;-64
2021/04/23 02:53:03;;;;;;;12.20;5.70;;;;;;;2.00;72.78;100628.11;104258;1104;78669;-63
2021/04/23 02:55:12;;;;;;;13.50;5.20;;;;;;;1.99;73.05;100628.22;104215;1104;77402;-59
2021/04/23 02:57:19;;;;;;;11.90;5.60;;;;;;;1.98;72.89;100632.70;104245;1104;78261;-57
2021/04/23 02:59:24;;;;;;;11.20;4.80;;;;;;;1.98;73.00;100629.22;104235;1104;77112;-58
2021/04/23 03:01:36;;;;;;;10.80;5.40;;;;;;;1.97;72.91;100632.84;104263;1098;77704;-59
2021/04/23 03:03:44;;;;;;;10.10;4.30;;;;;;;1.95;72.87;100626.80;104205;1104;78495;-60
2021/04/23 03:05:51;;;;;;;10.60;4.80;;;;;;;1.94;73.03;100625.10;104267;1099;77362;-63
2021/04/23 03:07:58;;;;;;;8.60;4.20;;;;;;;1.97;72.84;100632.84;104232;1104;78094;-63
2021/04/23 03:10:06;;;;;;;9.20;4.80;;;;;;;1.96;72.47;100631.14;104219;1099;77417;-62
2021/04/23 03:12:12;;;;;;;11.50;5.10;;;;;;;1.90;72.83;100632.50;104240;1104;78536;-62
2021/04/23 03:14:17;;;;;;;9.80;4.40;;;;;;;1.89;72.61;100632.64;104236;1104;78436;-65
2021/04/23 03:16:24;;;;;;;11.10;4.60;;;;;;;1.90;72.78;100631.64;104255;1098;77234;-58
2021/04/23 03:18:31;;;;;;;9.20;4.30;;;;;;;1.89;72.87;100638.81;104237;1104;78340;-59
2021/04/23 03:20:37;;;;;;;9.00;4.70;;;;;;;1.87;72.57;100640.74;104278;1104;78054;-62
2021/04/23 03:22:42;;;;;;;7.30;4.20;;;;;;;1.87;72.84;100637.26;104310;1099;78573;-63
2021/04/23 03:24:50;;;;;;;7.30;4.70;;;;;;;1.84;72.73;100637.52;104234;1098;78521;-63
2021/04/23 03:26:59;;;;;;;7.50;4.10;;;;;;;1.82;72.94;100636.77;104279;1104;77638;-60
2021/04/23 03:29:08;;;;;;;10.20;4.80;;;;;;;1.82;72.69;100642.09;104284;1104;79594;-60
2021/04/23 03:31:15;;;;;;;11.80;4.60;;;;;;;1.84;72.69;100648.98;104251;1104;77528;-64
2021/04/23 03:33:22;;;;;;;12.50;5.00;;;;;;;1.88;72.87;100646.92;104305;1104;78653;-63
2021/04/23 03:35:28;;;;;;;12.00;5.00;;;;;;;1.89;72.65;100651.28;104290;1104;79278;-63
2021/04/23 03:37:39;;;;;;;10.30;5.40;;;;;;;1.90;72.74;100655.63;104313;1100;77822;-66
2021/04/23 03:39:46;;;;;;;9.20;4.20;;;;;;;1.91;72.92;100660.84;104264;1104;76659;-59
2021/04/23 03:41:52;;;;;;;9.00;4.50;;;;;;;1.93;72.70;100658.03;104281;1104;78768;-59
2021/04/23 03:43:58;;;;;;;8.00;4.50;;;;;;;1.96;72.97;100652.45;104270;1104;78592;-58
2021/04/23 03:46:04;;;;;;;9.20;4.80;;;;;;;2.00;72.96;100668.07;104271;1099;77454;-59
2021/04/23 03:48:11;;;;;;;13.70;5.60;;;;;;;2.05;72.74;100663.20;104297;1104;77967;-58
2021/04/23 03:50:22;;;;;;;11.50;5.80;;;;;;;2.09;72.64;100674.42;104262;1104;77586;-58
2021/04/23 03:52:28;;;;;;;11.20;5.40;;;;;;;2.13;72.51;100675.87;104269;1104;78266;-59
2021/04/23 03:54:33;;;;;;;12.20;5.00;;;;;;;2.14;72.22;100670.39;104252;1100;78492;-58
2021/04/23 03:56:38;;;;;;;12.40;5.10;;;;;;;2.19;72.32;100678.02;104255;1104;78945;-60
2021/04/23 03:58:44;;;;;;;11.40;4.90;;;;;;;2.26;72.28;100682.70;104238;1104;78168;-59
2021/04/23 04:00:53;;;;;;;12.70;6.00;;;;;;;2.33;72.53;100683.04;104236;1104;78812;-63
2021/04/23 04:02:59;;;;;;;12.90;5.60;;;;;;;2.47;72.72;100685.39;104198;1104;79803;-66
2021/04/23 04:05:06;;;;;;;11.20;5.70;;;;;;;2.64;72.65;100687.43;104231;1104;77011;-64
2021/04/23 04:07:11;;;;;;;10.20;5.60;;;;;;;2.93;72.44;100688.45;104279;1099;78544;-64
2021/04/23 04:09:20;;;;;;;10.80;6.20;;;;;;;3.09;72.39;100687.09;104248;1104;77979;-63
2021/04/23 04:11:25;;;;;;;12.30;5.60;;;;;;;3.30;72.11;100687.86;104221;1104;76947;-60
2021/04/23 04:13:30;;;;;;;13.40;5.80;;;;;;;3.44;72.09;100693.67;104221;1104;79572;-59
2021/04/23 04:15:37;;;;;;;9.90;5.90;;;;;;;3.61;72.02;100691.31;104273;1100;77302;-64
2021/04/23 04:17:42;;;;;;;12.30;5.70;;;;;;;3.76;71.60;100690.80;104239;1104;77589;-63
2021/04/23 04:19:57;;;;;;;9.80;5.20;;;;;;;3.92;71.38;100704.45;104260;1104;77935;-64
2021/04/23 04:22:02;;;;;;;11.30;5.20;;;;;;;4.06;71.32;100700.52;104218;1104;78809;-60
2021/04/23 04:24:09;;;;;;;10.50;5.70;;;;;;;4.22;71.40;100697.28;104234;1104;78455;-60
2021/04/23 04:26:14;;;;;;;9.00;5.70;;;;;;;4.63;71.37;100702.30;104209;1104;78086;-60
2021/04/23 04:28:20;;;;;;;10.20;5.60;;;;;;;5.06;70.87;100699.91;104213;1104;79186;-59
2021/04/23 04:30:29;;;;;;;7.60;4.20;;;;;;;5.43;70.33;100705.26;104261;1104;77524;-60
2021/04/23 04:32:34;;;;;;;6.80;4.00;;;;;;;5.72;70.05;100705.08;104279;1104;77694;-59
2021/04/23 04:34:39;;;;;;;9.70;4.10;;;;;;;6.03;69.69;100706.45;104242;1104;78182;-58
2021/04/23 04:36:44;;;;;;;8.00;4.40;;;;;;;7.22;69.86;100706.69;104274;1099;78325;-61
2021/04/23 04:38:49;;;;;;;7.60;4.00;;;;;;;8.05;68.17;100710.30;104204;1104;78917;-60
2021/04/23 04:40:58;;;;;;;8.40;4.10;;;;;;;7.86;66.61;100710.60;104251;1104;78445;-63
2021/04/23 04:43:05;;;;;;;7.60;4.20;;;;;;;7.38;66.13;100708.59;104278;1104;79671;-65
2021/04/23 04:45:15;;;;;;;7.80;4.00;;;;;;;7.11;66.07;100715.02;104248;1104;78486;-56
2021/04/23 04:47:21;;;;;;;6.10;3.40;;;;;;;6.92;65.59;100709.88;104247;1104;78954;-59
2021/04/23 04:49:26;;;;;;;6.60;3.40;;;;;;;6.78;65.35;100716.66;104224;1104;77982;-59
2021/04/23 04:51:34;;;;;;;9.40;3.50;;;;;;;6.48;65.15;100717.91;104306;1104;78706;-57
2021/04/23 04:53:42;;;;;;;8.10;3.60;;;;;;;6.33;65.34;100719.48;104259;1104;79090;-59
2021/04/23 04:55:53;;;;;;;8.00;3.90;;;;;;;6.20;65.10;100726.23;104297;1098;77289;-58
2021/04/23 04:58:00;;;;;;;8.10;3.50;;;;;;;6.07;64.99;100729.27;104310;1099;77275;-57
2021/04/23 05:00:09;;;;;;;7.70;3.50;;;;;;;5.96;64.82;100726.81;104280;1100;76946;-60
2021/04/23 05:02:15;;;;;;;8.70;3.60;;;;;;;5.93;64.93;100729.83;104267;1098;78511;-56
2021/04/23 05:04:23;;;;;;;6.90;3.40;;;;;;;5.77;64.96;100730.44;104270;1099;77799;-59
2021/04/23 05:06:28;;;;;;;8.30;3.20;;;;;;;5.69;64.92;100732.17;104323;1104;76863;-59
2021/04/23 05:08:37;;;;;;;6.70;3.20;;;;;;;5.62;64.84;100742.67;104261;1104;78809;-59
2021/04/23 05:10:42;;;;;;;6.80;3.60;;;;;;;5.62;64.83;100739.14;104314;1104;78367;-58
2021/04/23 05:12:48;;;;;;;6.50;3.20;;;;;;;5.65;64.85;100752.25;104237;1104;78452;-56
2021/04/23 05:14:53;;;;;;;6.50;3.30;;;;;;;5.69;64.94;100737.53;104301;1099;77746;-61
2021/04/23 05:17:01;;;;;;;6.10;3.70;;;;;;;5.78;64.63;100732.13;104260;1104;78147;-64
2021/04/23 05:19:06;;;;;;;9.00;3.60;;;;;;;5.79;64.60;100743.70;104251;1104;79417;-63
2021/04/23 05:21:11;;;;;;;8.40;3.90;;;;;;;5.88;64.61;100738.30;104264;1105;77970;-63
2021/04/23 05:23:16;;;;;;;8.60;3.60;;;;;;;6.00;64.83;100736.25;104279;1099;78831;-63
2021/04/23 05:25:24;;;;;;;6.80;3.70;;;;;;;6.14;64.43;100734.88;104236;1104;78538;-63
2021/04/23 05:27:32;;;;;;;7.40;3.30;;;;;;;6.25;64.41;100743.55;104272;1098;76902;-64
2021/04/23 05:29:38;;;;;;;6.40;2.70;;;;;;;6.38;64.31;100738.64;104278;1104;77121;-62
2021/04/23 05:31:42;;;;;;;7.60;3.30;;;;;;;6.50;63.89;100740.09;104253;1104;78856;-58
2021/04/23 05:33:47;;;;;;;7.40;4.10;;;;;;;6.73;64.04;100739.61;104297;1104;79167;-59
2021/04/23 05:35:56;;;;;;;6.60;3.50;;;;;;;6.92;63.81;100740.23;104301;1104;77493;-63
2021/04/23 05:38:02;;;;;;;8.00;3.50;;;;;;;7.17;63.35;100743.91;104261;1104;78352;-63
2021/04/23 05:40:13;;;;;;;6.60;3.30;;;;;;;7.29;63.11;100742.65;104235;1099;77968;-57
2021/04/23 05:42:18;;;;;;;7.10;3.70;;;;;;;7.35;62.91;100741.17;104268;1104;78239;-58
2021/04/23 05:44:23;;;;;;;6.50;3.70;;;;;;;7.47;62.66;100745.27;104274;1099;78230;-57
2021/04/23 05:46:28;;;;;;;9.80;3.10;;;;;;;7.50;62.15;100743.08;104288;1099;77580;-63
2021/04/23 05:48:33;;;;;;;5.80;3.10;;;;;;;7.52;62.12;100753.69;104240;1104;79664;-64
2021/04/23 05:50:39;;;;;;;7.40;3.20;;;;;;;7.50;62.01;100755.67;104257;1104;78920;-64
2021/04/23 05:52:46;;;;;;;7.20;3.20;;;;;;;7.60;62.06;100754.58;104237;1104;78872;-64
2021/04/23 05:54:51;;;;;;;6.20;3.20;;;;;;;7.72;62.02;100750.57;104265;1104;76874;-62
2021/04/23 05:56:56;;;;;;;8.80;3.60;;;;;;;7.87;61.67;100753.48;104259;1104;78007;-58
2021/04/23 05:59:01;;;;;;;6.20;3.50;;;;;;;7.94;61.24;100759.07;104213;1104;78802;-58
2021/04/23 06:01:07;;;;;;;6.40;3.40;;;;;;;8.20;61.35;100757.10;104291;1099;77709;-58
2021/04/23 06:03:13;;;;;;;5.40;2.90;;;;;;;8.44;61.16;100757.17;104208;1104;78265;-58
2021/04/23 06:05:27;;;;;;;6.90;3.50;;;;;;;8.55;60.40;100756.84;104221;1099;77615;-59
2021/04/23 06:07:35;;;;;;;10.20;4.00;;;;;;;8.63;60.12;100753.30;104282;1104;79283;-60
2021/04/23 06:09:43;;;;;;;7.10;3.50;;;;;;;8.89;60.08;100752.14;104221;1104;78327;-58
2021/04/23 06:11:48;;;;;;;8.60;4.50;;;;;;;9.10;59.90;100756.13;104240;1104;77319;-62
2021/04/23 06:13:53;;;;;;;10.20;5.10;;;;;;;9.30;59.83;100760.14;104248;1104;77323;-64
2021/04/23 06:15:58;;;;;;;9.90;4.90;;;;;;;9.57;59.71;100759.72;104254;1104;77993;-63
2021/04/23 06:18:07;;;;;;;9.50;4.40;;;;;;;9.78;59.27;100754.56;104227;1104;78174;-66
2021/04/23 06:20:19;;;;;;;7.80;4.70;;;;;;;9.86;58.79;100746.44;104258;1104;78394;-62
2021/04/23 06:22:24;;;;;;;8.90;5.10;;;;;;;10.07;59.07;100746.68;104235;1104;77174;-62
2021/04/23 06:24:29;;;;;;;8.90;5.50;;;;;;;10.42;58.51;100747.99;104189;1104;79456;-62
2021/04/23 06:26:38;;;;;;;8.30;5.00;;;;;;;10.56;57.80;100751.77;104253;1104;77334;-60
2021/04/23 06:28:44;;;;;;;10.10;5.00;;;;;;;10.56;57.44;100763.42;104228;1104;78597;-60
2021/04/23 06:30:49;;;;;;;11.20;5.10;;;;;;;10.54;57.25;100757.37;104262;1098;77512;-59
2021/04/23 06:32:56;;;;;;;11.20;6.10;;;;;;;10.58;57.23;100763.23;104221;1104;77833;-58
2021/04/23 06:35:01;;;;;;;8.50;5.00;;;;;;;10.78;56.48;100758.18;104191;1099;77583;-62
2021/04/23 06:37:06;;;;;;;12.10;5.10;;;;;;;10.80;55.90;100761.53;104205;1104;78506;-58
2021/04/23 06:39:17;;;;;;;11.40;5.70;;;;;;;10.87;55.98;100763.34;104238;1104;78027;-57
2021/04/23 06:41:22;;;;;;;10.20;5.00;;;;;;;11.05;55.78;100768.41;104269;1104;79620;-59
2021/04/23 06:43:30;;;;;;;7.90;4.30;;;;;;;11.69;55.69;100767.76;104252;1104;78852;-59
2021/04/23 06:45:36;;;;;;;7.90;4.60;;;;;;;12.30;54.48;100755.61;104211;1104;78370;-61
2021/04/23 06:47:45;;;;;;;6.20;4.40;;;;;;;12.64;53.98;100759.47;104272;1104;78924;-63
2021/04/23 06:49:51;;;;;;;9.00;4.40;;;;;;;13.07;53.46;100763.00;104331;1098;79851;-60
2021/04/23 06:51:57;;;;;;;7.00;4.60;;;;;;;13.02;52.59;100764.41;104262;1105;78845;-60
2021/04/23 06:54:07;;;;;;;8.80;4.80;;;;;;;13.46;52.56;100758.70;104188;1104;78752;-59
2021/04/23 06:56:13;;;;;;;7.20;4.80;;;;;;;13.93;51.62;100749.77;104126;1104;77949;-58
2021/04/23 06:58:21;;;;;;;8.10;4.60;;;;;;;14.28;50.79;100750.55;104220;1104;78832;-58
2021/04/23 07:00:29;;;;;;;9.00;4.30;;;;;;;14.65;49.84;100755.45;104271;1104;79060;-61
2021/04/23 07:02:34;;;;;;;9.40;4.70;;;;;;;14.92;49.52;100750.87;104263;1098;77588;-61
2021/04/23 07:04:39;;;;;;;9.50;5.10;;;;;;;15.14;48.79;100751.48;104221;1104;78200;-60
2021/04/23 07:06:44;;;;;;;8.10;4.70;;;;;;;14.89;47.44;100747.75;104254;1104;77976;-58
2021/04/23 07:08:49;;;;;;;9.30;5.10;;;;;;;14.64;46.90;100744.80;104265;1104;78028;-58
2021/04/23 07:10:55;;;;;;;7.40;4.30;;;;;;;14.77;46.74;100742.09;104280;1098;78060;-59
2021/04/23 07:13:01;;;;;;;8.60;4.20;;;;;;;14.89;46.98;100742.31;104238;1104;78022;-62
2021/04/23 07:15:15;;;;;;;7.90;3.60;;;;;;;14.90;45.94;100743.96;104242;1104;78946;-63
2021/04/23 07:17:20;;;;;;;9.60;3.80;;;;;;;14.90;45.79;100733.08;104299;1098;77426;-63
2021/04/23 07:19:28;;;;;;;6.30;3.30;;;;;;;14.97;45.20;100736.66;104275;1100;77499;-66
2021/04/23 07:21:33;;;;;;;9.40;3.30;;;;;;;15.07;44.76;100729.74;104257;1104;77873;-57
2021/04/23 07:23:38;;;;;;;7.50;3.80;;;;;;;15.83;44.67;100736.30;104270;1099;78218;-58
2021/04/23 07:25:43;;;;;;;10.40;4.90;;;;;;;16.05;44.29;100727.81;104188;1104;78943;-63
2021/04/23 07:27:49;;;;;;;9.40;4.60;;;;;;;16.06;41.85;100724.89;104255;1104;78857;-62
2021/04/23 07:29:54;;;;;;;8.60;5.10;;;;;;;16.29;43.54;100724.33;104212;1104;78225;-64
2021/04/23 07:31:59;;;;;;;6.20;4.30;;;;;;;16.62;42.84;100732.36;104296;1099;77858;-64
2021/04/23 07:34:05;;;;;;;6.70;4.10;;;;;;;16.34;42.87;100729.98;104259;1104;79283;-62
2021/04/23 07:36:10;;;;;;;7.70;4.00;;;;;;;16.55;42.72;100728.83;104284;1097;78521;-64
2021/04/23 07:38:19;;;;;;;6.90;4.60;;;;;;;16.86;42.80;100737.84;104243;1104;79401;-59
2021/04/23 07:40:24;;;;;;;8.30;4.40;;;;;;;17.63;42.38;100722.85;104259;1104;78110;-62
2021/04/23 07:42:29;;;;;;;7.10;3.90;;;;;;;18.19;40.94;100734.33;104221;1104;77869;-63
2021/04/23 07:44:38;;;;;;;6.90;3.90;;;;;;;18.27;40.17;100725.80;104234;1099;79256;-63
2021/04/23 07:46:43;;;;;;;7.30;3.90;;;;;;;18.45;39.41;100724.09;104282;1104;77332;-65
2021/04/23 07:48:49;;;;;;;7.70;5.20;;;;;;;18.36;39.44;100723.59;104238;1104;78248;-63
2021/04/23 07:50:55;;;;;;;10.40;5.40;;;;;;;18.50;39.86;100729.73;104295;1099;78328;-63
2021/04/23 07:53:05;;;;;;;7.40;4.10;;;;;;;18.73;38.87;100730.62;104251;1104;78927;-64
2021/04/23 07:55:16;;;;;;;7.40;3.70;;;;;;;19.77;39.44;100731.77;104286;1104;78598;-59
2021/04/23 07:57:21;;;;;;;6.80;3.60;;;;;;;20.45;37.87;100724.41;104250;1104;77991;-59
2021/04/23 07:59:26;;;;;;;6.40;3.40;;;;;;;20.87;37.07;100722.16;104209;1104;77442;-58
2021/04/23 08:01:35;;;;;;;4.60;2.90;;;;;;;21.71;35.25;100726.49;104213;1098;77349;-59
2021/04/23 08:03:40;;;;;;;7.60;3.40;;;;;;;23.15;35.17;100728.65;104221;1104;79437;-58
2021/04/23 08:05:45;;;;;;;5.80;3.00;;;;;;;23.33;31.82;100734.57;104225;1098;77752;-62
2021/04/23 08:07:51;;;;;;;4.90;3.00;;;;;;;23.01;32.75;100738.45;104264;1098;77761;-65
2021/04/23 08:09:56;;;;;;;5.90;3.20;;;;;;;23.07;32.95;100729.14;104216;1099;77178;-58
2021/04/23 08:12:06;;;;;;;5.80;3.30;;;;;;;23.59;32.69;100729.26;104208;1104;78422;-56
2021/04/23 08:14:15;;;;;;;5.80;3.10;;;;;;;23.63;31.33;100739.48;104242;1104;77500;-55
2021/04/23 08:16:21;;;;;;;6.20;3.50;;;;;;;24.14;31.38;100732.33;104213;1104;78953;-63
2021/04/23 08:18:26;;;;;;;5.90;3.70;;;;;;;24.15;28.69;100730.38;104260;1104;78623;-65
2021/04/23 08:20:35;;;;;;;5.80;3.10;;;;;;;24.38;30.66;100727.14;104237;1104;78128;-59
2021/04/23 08:22:40;;;;;;;7.50;3.70;;;;;;;24.65;29.78;100722.22;104253;1104;79212;-58
2021/04/23 08:24:46;;;;;;;4.90;3.50;;;;;;;25.40;29.35;100717.83;104201;1104;78659;-57
2021/04/23 08:26:51;;;;;;;4.90;3.30;;;;;;;25.48;28.98;100717.29;104250;1104;78156;-58
2021/04/23 08:28:57;;;;;;;7.10;3.30;;;;;;;25.78;27.47;100719.98;104210;1104;78939;-58
2021/04/23 08:31:03;;;;;;;5.30;3.30;;;;;;;26.00;26.84;100703.83;104269;1104;77767;-58
2021/04/23 08:33:09;;;;;;;6.70;3.10;;;;;;;25.81;26.27;100716.64;104292;1104;78813;-57
2021/04/23 08:35:15;;;;;;;6.30;2.40;;;;;;;25.27;26.11;100707.34;104254;1099;79496;-63
2021/04/23 08:37:20;;;;;;;4.00;2.30;;;;;;;26.15;25.68;100709.31;104259;1104;78834;-65
2021/04/23 08:39:26;;;;;;;3.50;2.80;;;;;;;26.23;25.19;100714.26;104243;1104;78193;-65
2021/04/23 08:41:31;;;;;;;4.70;3.10;;;;;;;26.58;24.70;100701.32;104302;1098;77035;-64
2021/04/23 08:43:36;;;;;;;6.50;3.30;;;;;;;26.72;25.44;100700.39;104171;1104;78740;-64
2021/04/23 08:45:45;;;;;;;4.10;3.00;;;;;;;25.99;24.58;100707.70;104163;1104;80205;-64
2021/04/23 08:47:51;;;;;;;4.50;2.90;;;;;;;24.91;24.83;100698.24;104129;1104;79560;-66
2021/04/23 08:49:59;;;;;;;3.70;2.70;;;;;;;22.61;24.47;100705.81;104286;1098;77330;-59
2021/04/23 08:52:08;;;;;;;5.20;2.60;;;;;;;20.75;25.95;100713.14;104214;1104;78444;-69
2021/04/23 08:54:18;;;;;;;6.30;3.40;;;;;;;19.74;27.58;100715.80;104204;1104;78118;-66
2021/04/23 08:56:24;;;;;;;7.20;3.30;;;;;;;19.10;28.24;100720.33;104229;1104;79276;-65
2021/04/23 08:58:33;;;;;;;6.20;2.60;;;;;;;18.41;28.16;100722.88;104220;1104;78689;-65
2021/04/23 09:00:39;;;;;;;6.40;2.80;;;;;;;17.63;29.04;100720.13;104213;1104;78878;-57
2021/04/23 09:02:44;;;;;;;4.50;2.70;;;;;;;17.21;29.64;100719.05;104273;1104;76768;-57
2021/04/23 09:04:52;;;;;;;4.60;2.50;;;;;;;16.75;30.20;100714.00;104231;1104;77942;-64
2021/04/23 09:07:08;;;;;;;8.00;2.20;;;;;;;16.31;30.73;100716.79;104237;1104;78494;-60
2021/04/23 09:09:14;;;;;;;4.80;2.50;;;;;;;15.71;31.29;100721.66;104215;1098;79261;-59
2021/04/23 09:11:22;;;;;;;4.80;2.00;;;;;;;15.46;31.55;100715.27;104231;1104;79692;-60
2021/04/23 09:13:27;;;;;;;4.20;2.30;;;;;;;15.20;31.72;100713.39;104229;1104;77851;-59
2021/04/23 09:15:32;;;;;;;7.20;2.40;;;;;;;14.91;32.49;100718.45;104229;1104;77941;-64
2021/04/23 09:17:37;;;;;;;4.80;3.30;;;;;;;15.15;33.38;100712.35;104264;1104;79632;-63
2021/04/23 09:19:42;;;;;;;6.20;2.60;;;;;;;16.33;33.70;100706.49;104230;1104;79292;-64
2021/04/23 09:21:59;;;;;;;5.20;2.20;;;;;;;17.42;33.32;100701.39;104250;1104;78378;-64
2021/04/23 09:24:10;;;;;;;8.00;2.30;;;;;;;18.69;33.12;100695.75;104231;1104;79139;-65
2021/04/23 09:26:35;;;;;;;5.70;2.00;;;;;;;19.53;31.22;100694.52;104275;1098;78470;-58
2021/04/23 09:28:43;;;;;;;5.70;2.30;;;;;;;19.53;30.04;100680.81;104225;1104;79497;-60
2021/04/23 09:30:49;;;;;;;5.60;2.30;;;;;;;19.54;30.07;100679.72;104225;1104;76914;-59
2021/04/23 09:32:54;;;;;;;5.60;2.10;;;;;;;19.45;29.52;100667.48;104227;1104;77265;-59
2021/04/23 09:35:01;;;;;;;5.90;2.40;;;;;;;18.64;29.58;100681.95;104279;1104;78178;-66
2021/04/23 09:37:06;;;;;;;7.70;3.70;;;;;;;17.73;29.41;100673.95;104249;1104;78063;-63
2021/04/23 09:39:14;;;;;;;7.70;3.30;;;;;;;16.83;30.39;100691.89;104222;1104;79239;-62
2021/04/23 09:41:22;;;;;;;5.40;2.90;;;;;;;15.94;30.77;100694.75;104249;1104;77837;-58
2021/04/23 09:43:38;;;;;;;6.40;2.30;;;;;;;15.38;31.34;100699.13;104290;1104;78313;-58
2021/04/23 09:45:54;;;;;;;4.30;1.80;;;;;;;15.06;31.30;100689.96;104255;1104;78913;-58